createdAt,value
2022-09-28T00:01:25.037Z,58.33
2022-09-28T00:04:27.652Z,59.11
2022-09-28T00:07:30.010Z,57.24
2022-09-28T00:10:32.275Z,56.86
2022-09-28T00:13:35.323Z,56.78
2022-09-28T00:16:43.773Z,59.51
2022-09-28T00:19:46.167Z,58.32
2022-09-28T00:22:48.372Z,56.36
2022-09-28T00:25:50.918Z,57.83
2022-09-28T00:28:54.454Z,57.21
2022-09-28T00:32:04.183Z,57.83
2022-09-28T00:35:07.019Z,58.41
2022-09-28T00:38:09.522Z,57.63
2022-09-28T00:41:12.339Z,59.08
2022-09-28T00:44:26.845Z,59.14
2022-09-28T00:47:49.919Z,61.27
2022-09-28T00:50:52.855Z,62.03
2022-09-28T00:53:56.311Z,59.52
2022-09-28T00:56:59.301Z,60.98
2022-09-28T01:00:02.362Z,60.99
2022-09-28T01:03:04.637Z,62.61
2022-09-28T01:06:07.843Z,63.37
2022-09-28T01:09:10.673Z,62.82
2022-09-28T01:12:13.098Z,64.36
2022-09-28T01:15:15.664Z,63.81
2022-09-28T01:18:35.612Z,63.34
2022-09-28T01:22:19.169Z,64.46
2022-09-28T01:25:46.795Z,60.93
2022-09-28T01:28:55.587Z,61.23
2022-09-28T01:32:31.995Z,58.00
2022-09-28T01:35:44.687Z,57.16
2022-09-28T01:38:49.354Z,57.46
2022-09-28T01:41:53.303Z,58.99
2022-09-28T01:45:01.718Z,58.36
2022-09-28T01:48:06.228Z,58.05
2022-09-28T01:51:13.011Z,58.57
2022-09-28T01:54:40.829Z,61.19
2022-09-28T01:57:47.342Z,60.56
2022-09-28T02:00:56.197Z,59.55
2022-09-28T02:04:04.695Z,60.78
2022-09-28T02:07:13.041Z,59.30
2022-09-28T02:10:23.207Z,59.12
2022-09-28T02:13:33.839Z,60.99
2022-09-28T02:16:41.224Z,60.34
2022-09-28T02:19:44.289Z,60.77
2022-09-28T02:22:52.245Z,61.90
2022-09-28T02:26:03.947Z,62.11
2022-09-28T02:29:06.505Z,61.68
2022-09-28T02:32:08.769Z,63.84
2022-09-28T02:35:13.822Z,62.71
2022-09-28T02:38:16.287Z,62.06
2022-09-28T02:41:26.090Z,62.65
2022-09-28T02:44:52.971Z,62.02
2022-09-28T02:48:55.734Z,60.63
2022-09-28T02:51:53.758Z,62.69
2022-09-28T02:55:11.506Z,62.75
2022-09-28T02:58:22.462Z,60.52
2022-09-28T03:01:52.685Z,60.58
2022-09-28T03:04:55.107Z,59.76
2022-09-28T03:08:06.495Z,60.83
2022-09-28T03:11:14.996Z,61.53
2022-09-28T03:14:18.802Z,60.85
2022-09-28T03:17:26.663Z,60.28
2022-09-28T03:20:30.539Z,61.95
2022-09-28T03:23:33.269Z,59.51
2022-09-28T03:26:40.294Z,61.39
2022-09-28T03:29:42.788Z,57.69
2022-09-28T03:32:45.311Z,55.62
2022-09-28T03:35:51.318Z,57.52
2022-09-28T03:38:56.749Z,56.81
2022-09-28T03:42:01.308Z,56.30
2022-09-28T03:45:06.137Z,58.64
2022-09-28T03:48:08.684Z,56.40
2022-09-28T03:51:12.226Z,54.08
2022-09-28T03:54:14.667Z,55.97
2022-09-28T03:57:16.913Z,56.24
2022-09-28T04:00:19.840Z,55.00
2022-09-28T04:03:22.045Z,59.21
2022-09-28T04:06:25.270Z,56.62
2022-09-28T04:09:27.598Z,55.99
2022-09-28T04:12:30.433Z,57.34
2022-09-28T04:15:32.697Z,54.69
2022-09-28T04:18:35.299Z,58.26
2022-09-28T04:21:46.655Z,54.35
2022-09-28T04:24:50.153Z,55.31
2022-09-28T04:28:16.369Z,55.51
2022-09-28T04:31:21.234Z,57.20
2022-09-28T04:34:23.595Z,57.90
2022-09-28T04:37:25.921Z,57.63
2022-09-28T04:40:28.269Z,58.62
2022-09-28T04:43:31.235Z,56.50
2022-09-28T04:46:34.141Z,57.82
2022-09-28T04:49:56.695Z,59.96
2022-09-28T04:53:06.722Z,59.57
2022-09-28T04:56:11.921Z,59.65
2022-09-28T04:59:15.531Z,59.51
2022-09-28T05:02:18.478Z,58.98
2022-09-28T05:05:47.699Z,61.36
2022-09-28T05:09:04.443Z,59.52
2022-09-28T05:12:09.128Z,60.11
2022-09-28T05:15:12.636Z,60.13
2022-09-28T05:18:14.888Z,57.87
2022-09-28T05:21:25.201Z,59.78
2022-09-28T05:24:27.415Z,59.54
2022-09-28T05:27:29.768Z,58.85
2022-09-28T05:30:41.790Z,58.10
2022-09-28T05:34:02.599Z,57.83
2022-09-28T05:37:04.969Z,57.29
2022-09-28T05:40:07.750Z,57.65
2022-09-28T05:43:10.029Z,56.96
2022-09-28T05:46:12.352Z,56.54
2022-09-28T05:49:17.236Z,56.27
2022-09-28T05:52:19.901Z,56.15
2022-09-28T05:55:22.205Z,54.70
2022-09-28T05:58:24.512Z,54.58
2022-09-28T06:01:27.293Z,55.25
2022-09-28T06:04:31.121Z,54.39
2022-09-28T06:07:34.486Z,54.94
2022-09-28T06:10:36.868Z,51.97
2022-09-28T06:13:40.036Z,51.15
2022-09-28T06:16:44.000Z,51.80
2022-09-28T06:19:47.462Z,51.40
2022-09-28T06:23:01.271Z,51.37
2022-09-28T06:26:03.528Z,51.00
2022-09-28T06:29:05.997Z,50.82
2022-09-28T06:32:08.504Z,48.96
2022-09-28T06:35:15.533Z,48.81
2022-09-28T06:38:18.562Z,48.98
2022-09-28T06:41:20.949Z,48.86
2022-09-28T06:44:24.317Z,47.49
2022-09-28T06:47:33.840Z,47.41
2022-09-28T06:50:47.517Z,47.08
2022-09-28T06:54:01.645Z,46.11
2022-09-28T06:57:23.876Z,46.04
2022-09-28T07:00:32.896Z,44.87
2022-09-28T07:03:35.626Z,44.13
2022-09-28T07:06:59.159Z,44.45
2022-09-28T07:10:28.799Z,43.84
2022-09-28T07:13:50.704Z,42.79
2022-09-28T07:17:12.442Z,42.82
2022-09-28T07:20:19.348Z,41.90
2022-09-28T07:23:24.256Z,41.08
2022-09-28T07:26:52.112Z,41.57
2022-09-28T07:30:05.961Z,41.00
2022-09-28T07:33:31.596Z,40.47
2022-09-28T07:36:57.451Z,40.84
2022-09-28T07:40:26.023Z,40.13
2022-09-28T07:43:28.915Z,40.33
2022-09-28T07:46:33.010Z,40.72
2022-09-28T07:49:40.125Z,39.75
2022-09-28T07:53:10.121Z,41.45
2022-09-28T07:56:31.043Z,38.84
2022-09-28T07:59:53.687Z,38.24
2022-09-28T08:03:24.876Z,39.86
2022-09-28T08:06:30.228Z,38.40
2022-09-28T08:09:32.662Z,38.88
2022-09-28T08:13:01.969Z,39.77
2022-09-28T08:16:14.190Z,39.08
2022-09-28T08:20:13.254Z,40.38
2022-09-28T08:23:16.077Z,40.06
2022-09-28T08:26:18.529Z,40.47
2022-09-28T08:29:22.351Z,40.81
2022-09-28T08:32:24.779Z,40.18
2022-09-28T08:36:00.321Z,40.16
2022-09-28T08:39:34.487Z,40.81
2022-09-28T08:42:57.808Z,40.76
2022-09-28T08:46:25.028Z,41.51
2022-09-28T08:49:50.323Z,40.95
2022-09-28T08:52:57.918Z,40.95
2022-09-28T08:56:38.024Z,41.13
2022-09-28T08:59:48.747Z,41.89
2022-09-28T09:02:56.533Z,41.65
2022-09-28T09:06:42.671Z,41.97
2022-09-28T09:10:22.920Z,41.92
2022-09-28T09:13:56.685Z,42.46
2022-09-28T09:17:12.240Z,41.14
2022-09-28T09:20:56.928Z,41.86
2022-09-28T09:24:18.872Z,40.74
2022-09-28T09:27:21.163Z,42.36
2022-09-28T09:30:25.928Z,41.26
2022-09-28T09:33:52.491Z,41.17
2022-09-28T09:37:28.638Z,41.08
2022-09-28T09:44:45.466Z,40.62
2022-09-28T09:48:13.563Z,41.02
2022-09-28T09:51:30.068Z,39.95
2022-09-28T09:54:46.745Z,41.18
2022-09-28T09:58:14.877Z,40.13
2022-09-28T10:01:23.514Z,40.73
2022-09-28T10:04:50.803Z,40.89
2022-09-28T10:08:13.270Z,41.10
2022-09-28T10:11:28.069Z,41.76
2022-09-28T10:14:31.239Z,43.28
2022-09-28T10:17:42.989Z,44.19
2022-09-28T10:21:15.275Z,43.64
2022-09-28T10:24:41.389Z,44.64
2022-09-28T10:27:46.256Z,44.77
2022-09-28T10:30:49.771Z,45.77
2022-09-28T10:33:53.487Z,45.79
2022-09-28T10:37:00.744Z,45.67
2022-09-28T10:40:43.879Z,45.06
2022-09-28T10:44:07.174Z,45.42
2022-09-28T10:47:17.602Z,46.41
2022-09-28T10:50:24.244Z,45.70
2022-09-28T10:53:37.168Z,45.42
2022-09-28T10:57:02.398Z,45.71
2022-09-28T11:00:32.024Z,44.98
2022-09-28T11:03:52.582Z,45.80
2022-09-28T11:10:28.001Z,45.57
2022-09-28T11:14:03.819Z,44.02
2022-09-28T11:17:20.633Z,44.86
2022-09-28T11:20:28.479Z,45.21
2022-09-28T11:23:34.983Z,44.02
2022-09-28T11:26:52.972Z,44.38
2022-09-28T11:29:59.472Z,42.82
2022-09-28T11:33:05.524Z,42.44
2022-09-28T11:37:01.493Z,43.62
2022-09-28T11:40:13.671Z,42.30
2022-09-28T11:43:16.844Z,43.42
2022-09-28T11:46:40.355Z,43.92
2022-09-28T11:49:54.623Z,43.61
2022-09-28T11:53:12.006Z,43.50
2022-09-28T11:56:17.392Z,43.73
2022-09-28T11:59:27.656Z,43.88
2022-09-28T12:02:59.468Z,42.54
2022-09-28T12:06:05.524Z,43.95
2022-09-28T12:09:16.598Z,43.92
2022-09-28T12:12:32.894Z,42.58
2022-09-28T12:16:32.754Z,41.78
2022-09-28T12:19:46.888Z,41.89
2022-09-28T12:23:06.014Z,41.06
2022-09-28T12:26:22.055Z,40.85
2022-09-28T12:29:32.687Z,41.84
2022-09-28T12:32:51.243Z,41.91
2022-09-28T12:36:17.669Z,42.42
2022-09-28T12:40:00.287Z,40.80
2022-09-28T12:43:03.346Z,41.31
2022-09-28T12:46:24.407Z,41.79
2022-09-28T12:53:24.126Z,41.71
2022-09-28T12:56:50.298Z,40.93
2022-09-28T13:00:00.759Z,40.80
2022-09-28T13:03:03.117Z,41.08
2022-09-28T13:06:33.768Z,40.76
2022-09-28T13:09:47.666Z,42.02
2022-09-28T13:13:26.187Z,41.47
2022-09-28T13:16:44.079Z,41.93
2022-09-28T13:19:59.186Z,42.64
2022-09-28T13:23:07.344Z,42.14
2022-09-28T13:26:17.591Z,41.46
2022-09-28T13:29:20.930Z,41.84
2022-09-28T13:32:25.974Z,42.36
2022-09-28T13:35:28.586Z,41.68
2022-09-28T13:38:44.848Z,41.74
2022-09-28T13:41:48.825Z,43.18
2022-09-28T13:45:00.793Z,42.31
2022-09-28T13:48:13.425Z,42.51
2022-09-28T13:51:44.911Z,42.62
2022-09-28T13:54:52.813Z,41.29
2022-09-28T13:58:02.615Z,41.54
2022-09-28T14:01:12.066Z,41.45
2022-09-28T14:04:28.978Z,41.91
2022-09-28T14:08:05.420Z,42.80
2022-09-28T14:11:34.368Z,43.00
2022-09-28T14:14:45.891Z,42.30
2022-09-28T14:17:54.388Z,43.06
2022-09-28T14:21:02.720Z,42.83
2022-09-28T14:24:14.818Z,43.07
2022-09-28T14:27:20.179Z,43.80
2022-09-28T14:30:23.687Z,43.91
2022-09-28T14:33:31.143Z,45.19
2022-09-28T14:37:01.533Z,44.49
2022-09-28T14:40:49.553Z,45.45
2022-09-28T14:44:05.668Z,46.11
2022-09-28T14:47:34.969Z,45.67
2022-09-28T14:50:37.313Z,43.64
2022-09-28T14:53:39.924Z,43.73
2022-09-28T14:56:53.818Z,43.65
2022-09-28T14:59:59.585Z,44.39
2022-09-28T15:03:06.741Z,44.54
2022-09-28T15:06:16.268Z,44.53
2022-09-28T15:09:38.146Z,45.03
2022-09-28T15:12:43.668Z,46.04
2022-09-28T15:15:50.571Z,45.63
2022-09-28T15:19:21.469Z,45.51
2022-09-28T15:22:23.702Z,45.45
2022-09-28T15:25:28.460Z,46.08
2022-09-28T15:28:30.892Z,45.96
2022-09-28T15:31:35.881Z,46.08
2022-09-28T15:34:54.635Z,46.66
2022-09-28T15:37:57.074Z,46.18
2022-09-28T15:41:02.834Z,45.69
2022-09-28T15:44:17.216Z,46.45
2022-09-28T15:47:27.655Z,46.05
2022-09-28T15:50:30.370Z,46.78
2022-09-28T15:53:33.306Z,46.52
2022-09-28T15:56:55.132Z,46.56
2022-09-28T15:59:59.199Z,47.55
2022-09-28T16:03:05.465Z,47.49
2022-09-28T16:06:09.434Z,47.78
2022-09-28T16:09:31.569Z,48.02
2022-09-28T16:12:48.716Z,47.99
2022-09-28T16:15:58.226Z,48.08
2022-09-28T16:19:01.270Z,48.55
2022-09-28T16:22:06.450Z,49.09
2022-09-28T16:25:17.062Z,49.33
2022-09-28T16:28:26.600Z,49.43
2022-09-28T16:31:33.846Z,49.00
2022-09-28T16:34:36.484Z,48.38
2022-09-28T16:37:43.055Z,48.98
2022-09-28T16:40:49.565Z,49.38
2022-09-28T16:44:02.298Z,48.48
2022-09-28T16:47:04.609Z,48.22
2022-09-28T16:50:07.452Z,48.30
2022-09-28T16:53:33.845Z,48.92
2022-09-28T16:56:36.712Z,48.42
2022-09-28T16:59:39.219Z,49.07
2022-09-28T17:02:46.577Z,49.08
2022-09-28T17:05:50.397Z,49.43
2022-09-28T17:08:56.602Z,49.66
2022-09-28T17:11:58.960Z,51.34
2022-09-28T17:15:01.195Z,50.05
2022-09-28T17:18:04.213Z,50.17
2022-09-28T17:21:10.135Z,51.46
2022-09-28T17:24:12.376Z,50.61
2022-09-28T17:27:17.353Z,50.60
2022-09-28T17:30:23.648Z,52.06
2022-09-28T17:33:28.398Z,54.65
2022-09-28T17:36:31.030Z,52.12
2022-09-28T17:39:33.313Z,54.16
2022-09-28T17:42:35.511Z,53.25
2022-09-28T17:45:41.730Z,53.34
2022-09-28T17:48:46.773Z,53.17
2022-09-28T17:51:50.300Z,53.97
2022-09-28T17:54:52.508Z,53.77
2022-09-28T17:57:55.593Z,55.15
2022-09-28T18:00:57.861Z,56.32
2022-09-28T18:04:01.781Z,56.56
2022-09-28T18:07:04.139Z,58.07
2022-09-28T18:10:07.141Z,56.76
2022-09-28T18:13:09.682Z,58.25
2022-09-28T18:16:12.704Z,58.98
2022-09-28T18:19:15.220Z,61.51
2022-09-28T18:22:17.563Z,63.16
2022-09-28T18:25:19.885Z,62.39
2022-09-28T18:28:23.100Z,64.23
2022-09-28T18:31:25.480Z,64.38
2022-09-28T18:34:27.774Z,64.97
2022-09-28T18:37:30.148Z,64.10
2022-09-28T18:40:33.802Z,65.07
2022-09-28T18:43:37.067Z,65.45
2022-09-28T18:46:40.656Z,65.62
2022-09-28T18:49:46.593Z,65.48
2022-09-28T18:52:49.162Z,66.70
2022-09-28T18:55:51.428Z,67.44
2022-09-28T18:58:53.721Z,66.61
2022-09-28T19:01:56.069Z,67.19
2022-09-28T19:04:58.501Z,67.78
2022-09-28T19:08:00.937Z,67.83
2022-09-28T19:11:15.691Z,68.51
2022-09-28T19:14:18.000Z,69.27
2022-09-28T19:17:20.813Z,69.48
2022-09-28T19:20:23.234Z,68.67
2022-09-28T19:23:25.543Z,69.63
2022-09-28T19:26:28.344Z,69.58
2022-09-28T19:29:30.675Z,68.71
2022-09-28T19:32:32.956Z,70.84
2022-09-28T19:35:35.203Z,70.29
2022-09-28T19:38:39.044Z,68.44
2022-09-28T19:41:51.392Z,68.31
2022-09-28T19:44:53.786Z,68.73
2022-09-28T19:47:59.550Z,67.69
2022-09-28T19:51:04.008Z,68.77
2022-09-28T19:54:06.970Z,67.89
2022-09-28T19:57:09.405Z,68.50
2022-09-28T20:00:11.847Z,69.56
2022-09-28T20:03:14.264Z,68.28
2022-09-28T20:06:17.456Z,69.51
2022-09-28T20:09:20.154Z,68.04
2022-09-28T20:12:22.540Z,69.16
2022-09-28T20:15:25.280Z,69.75
2022-09-28T20:18:27.866Z,69.79
2022-09-28T20:21:30.427Z,69.49
2022-09-28T20:24:32.944Z,68.84
2022-09-28T20:27:35.385Z,69.26
2022-09-28T20:30:38.467Z,70.67
2022-09-28T20:33:44.119Z,69.71
2022-09-28T20:36:46.413Z,69.65
2022-09-28T20:39:48.890Z,69.43
2022-09-28T20:42:51.537Z,69.23
2022-09-28T20:45:56.237Z,69.28
2022-09-28T20:48:59.605Z,69.36
2022-09-28T20:52:02.272Z,69.02
2022-09-28T20:55:04.942Z,69.79
2022-09-28T20:58:07.158Z,69.21
2022-09-28T21:01:14.743Z,69.50
2022-09-28T21:04:17.089Z,69.36
2022-09-28T21:07:19.456Z,69.79
2022-09-28T21:10:21.744Z,69.94
2022-09-28T21:13:25.132Z,69.06
2022-09-28T21:16:30.098Z,70.02
2022-09-28T21:19:32.348Z,69.72
2022-09-28T21:22:34.651Z,69.58
2022-09-28T21:25:36.935Z,70.12
2022-09-28T21:28:39.853Z,70.12
2022-09-28T21:31:45.775Z,69.51
2022-09-28T21:34:48.062Z,69.92
2022-09-28T21:37:50.423Z,70.90
2022-09-28T21:40:57.044Z,70.75
2022-09-28T21:43:59.409Z,69.57
2022-09-28T21:47:01.720Z,70.38
2022-09-28T21:50:04.095Z,69.26
2022-09-28T21:53:06.352Z,69.37
2022-09-28T21:56:11.193Z,69.75
2022-09-28T21:59:13.474Z,70.79
2022-09-28T22:02:15.761Z,69.88
2022-09-28T22:05:19.328Z,70.68
2022-09-28T22:08:21.949Z,70.11
2022-09-28T22:11:27.116Z,69.92
2022-09-28T22:14:29.561Z,69.16
2022-09-28T22:17:31.845Z,70.31
2022-09-28T22:20:34.159Z,69.13
2022-09-28T22:23:37.726Z,70.70
2022-09-28T22:26:40.519Z,69.51
2022-09-28T22:29:43.155Z,69.87
2022-09-28T22:32:45.479Z,69.45
2022-09-28T22:35:49.264Z,69.13
2022-09-28T22:38:52.002Z,68.81
2022-09-28T22:41:54.305Z,69.58
2022-09-28T22:44:56.594Z,69.49
2022-09-28T22:47:58.862Z,69.49
2022-09-28T22:51:01.792Z,69.09
2022-09-28T22:54:04.332Z,69.58
2022-09-28T22:57:06.616Z,70.00
2022-09-28T23:00:09.205Z,70.25
2022-09-28T23:03:11.635Z,70.42
2022-09-28T23:06:16.643Z,71.37
2022-09-28T23:09:19.246Z,71.44
2022-09-28T23:12:21.558Z,71.46
2022-09-28T23:15:24.658Z,72.12
2022-09-28T23:18:31.941Z,72.20
2022-09-28T23:21:34.355Z,72.09
2022-09-28T23:24:36.618Z,71.35
2022-09-28T23:27:38.860Z,72.63
2022-09-28T23:30:41.070Z,72.14
2022-09-28T23:33:43.498Z,72.41
2022-09-28T23:36:45.846Z,72.16
2022-09-28T23:39:48.108Z,71.94
2022-09-28T23:42:50.384Z,72.49
2022-09-28T23:45:52.697Z,72.64
2022-09-28T23:48:55.013Z,72.37
2022-09-28T23:51:57.265Z,73.01
2022-09-28T23:54:59.526Z,72.56
2022-09-28T23:58:01.786Z,72.00
